createdAt,value
2023-01-12T00:01:34.025Z,101003.23
2023-01-12T00:05:01.697Z,101002.93
2023-01-12T00:08:29.422Z,100995.45
2023-01-12T00:11:45.704Z,101000.00
2023-01-12T00:15:02.020Z,100999.55
2023-01-12T00:18:11.701Z,100998.88
2023-01-12T00:21:02.487Z,101000.02
2023-01-12T00:23:53.102Z,100998.52
2023-01-12T00:27:18.020Z,100991.80
2023-01-12T00:30:45.770Z,100994.04
2023-01-12T00:33:54.466Z,100998.28
2023-01-12T00:37:03.256Z,100997.59
2023-01-12T00:40:18.675Z,100998.34
2023-01-12T00:43:27.295Z,101004.35
2023-01-12T00:46:55.178Z,101008.16
2023-01-12T00:49:44.785Z,101010.55
2023-01-12T00:52:53.581Z,101015.60
2023-01-12T00:56:01.203Z,101021.52
2023-01-12T00:59:28.955Z,101031.45
2023-01-12T01:02:56.871Z,101029.27
2023-01-12T01:06:24.447Z,101034.09
2023-01-12T01:09:47.885Z,101031.98
2023-01-12T01:13:15.526Z,101029.84
2023-01-12T01:16:43.003Z,101027.91
2023-01-12T01:20:10.634Z,101027.98
2023-01-12T01:23:38.276Z,101034.50
2023-01-12T01:27:06.094Z,101036.12
2023-01-12T01:30:14.728Z,101031.94
2023-01-12T01:33:42.506Z,101028.95
2023-01-12T01:36:51.067Z,101027.63
2023-01-12T01:40:18.518Z,101028.79
2023-01-12T01:43:46.090Z,101026.71
2023-01-12T01:46:42.268Z,101020.16
2023-01-12T01:49:50.210Z,101016.52
2023-01-12T01:53:17.890Z,101017.61
2023-01-12T01:56:45.503Z,101013.29
2023-01-12T02:00:13.485Z,101005.14
2023-01-12T02:03:41.289Z,101001.58
2023-01-12T02:07:08.891Z,101006.23
2023-01-12T02:10:36.527Z,101012.05
2023-01-12T02:14:04.296Z,101015.16
2023-01-12T02:17:13.348Z,101019.23
2023-01-12T02:20:17.319Z,101016.48
2023-01-12T02:23:45.038Z,101006.43
2023-01-12T02:26:37.440Z,101010.34
2023-01-12T02:29:49.238Z,101012.57
2023-01-12T02:32:37.551Z,101007.73
2023-01-12T02:36:05.215Z,101001.25
2023-01-12T02:39:02.871Z,100996.69
2023-01-12T02:42:30.757Z,100995.11
2023-01-12T02:45:58.504Z,100994.39
2023-01-12T02:49:26.118Z,100993.57
2023-01-12T02:52:53.744Z,100992.83
2023-01-12T02:56:21.609Z,100999.16
2023-01-12T02:59:49.258Z,101001.52
2023-01-12T03:02:47.414Z,101004.10
2023-01-12T03:05:25.662Z,101004.31
2023-01-12T03:08:41.049Z,101010.27
2023-01-12T03:12:10.955Z,101014.80
2023-01-12T03:15:38.443Z,101012.87
2023-01-12T03:19:06.110Z,101014.06
2023-01-12T03:22:29.642Z,101006.98
2023-01-12T03:25:57.386Z,101010.75
2023-01-12T03:29:24.949Z,101021.66
2023-01-12T03:32:52.794Z,101027.98
2023-01-12T03:36:09.096Z,101031.40
2023-01-12T03:39:36.832Z,101031.92
2023-01-12T03:42:45.619Z,101032.77
2023-01-12T03:45:55.044Z,101031.69
2023-01-12T03:49:22.621Z,101024.77
2023-01-12T03:52:46.169Z,101013.58
2023-01-12T03:55:35.942Z,101006.73
2023-01-12T03:58:40.984Z,101004.19
2023-01-12T04:01:56.531Z,101005.24
2023-01-12T04:05:04.102Z,101008.98
2023-01-12T04:08:31.711Z,101010.98
2023-01-12T04:11:59.391Z,101000.17
2023-01-12T04:15:27.232Z,100992.29
2023-01-12T04:18:16.472Z,100993.36
2023-01-12T04:21:25.445Z,100993.76
2023-01-12T04:24:34.069Z,100994.60
2023-01-12T04:28:01.857Z,100996.61
2023-01-12T04:31:29.535Z,101002.35
2023-01-12T04:34:57.193Z,101008.91
2023-01-12T04:38:13.207Z,101011.80
2023-01-12T04:41:29.052Z,101019.48
2023-01-12T04:44:38.982Z,101018.77
2023-01-12T04:47:46.326Z,101021.33
2023-01-12T04:51:13.905Z,101028.77
2023-01-12T04:54:22.665Z,101029.64
2023-01-12T04:57:50.412Z,101019.54
2023-01-12T05:01:01.938Z,101014.20
2023-01-12T05:04:17.275Z,101008.06
2023-01-12T05:07:41.940Z,101010.56
2023-01-12T05:10:50.665Z,101015.90
2023-01-12T05:13:59.414Z,101012.64
2023-01-12T05:17:27.076Z,101009.42
2023-01-12T05:20:54.812Z,101015.69
2023-01-12T05:24:19.513Z,101017.27
2023-01-12T05:27:47.666Z,101025.48
2023-01-12T05:30:59.337Z,101023.48
2023-01-12T05:34:22.791Z,101023.71
2023-01-12T05:37:50.383Z,101023.42
2023-01-12T05:40:49.623Z,101025.90
2023-01-12T05:44:17.133Z,101031.80
2023-01-12T05:47:45.045Z,101033.13
2023-01-12T05:51:09.957Z,101038.89
2023-01-12T05:54:36.118Z,101043.99
2023-01-12T05:57:44.025Z,101042.65
2023-01-12T06:01:12.043Z,101039.38
2023-01-12T06:04:24.492Z,101039.66
2023-01-12T06:07:52.554Z,101044.36
2023-01-12T06:11:02.195Z,101053.52
2023-01-12T06:14:29.772Z,101064.89
2023-01-12T06:17:36.679Z,101067.26
2023-01-12T06:20:48.481Z,101065.23
2023-01-12T06:24:16.098Z,101071.09
2023-01-12T06:27:43.847Z,101071.56
2023-01-12T06:31:11.428Z,101077.66
2023-01-12T06:34:38.907Z,101078.09
2023-01-12T06:37:47.913Z,101078.56
2023-01-12T06:40:56.068Z,101080.43
2023-01-12T06:44:23.758Z,101082.61
2023-01-12T06:47:51.274Z,101078.78
2023-01-12T06:51:18.777Z,101083.69
2023-01-12T06:54:09.447Z,101088.06
2023-01-12T06:57:24.939Z,101100.67
2023-01-12T07:00:16.291Z,101106.91
2023-01-12T07:03:24.949Z,101110.61
2023-01-12T07:06:52.539Z,101120.13
2023-01-12T07:10:20.338Z,101123.98
2023-01-12T07:13:36.061Z,101128.52
2023-01-12T07:17:03.610Z,101128.58
2023-01-12T07:20:31.449Z,101127.95
2023-01-12T07:23:46.601Z,101128.02
2023-01-12T07:26:55.446Z,101138.16
2023-01-12T07:30:03.869Z,101146.95
2023-01-12T07:33:32.199Z,101145.98
2023-01-12T07:36:59.979Z,101142.79
2023-01-12T07:39:49.705Z,101142.91
2023-01-12T07:43:17.917Z,101140.97
2023-01-12T07:46:45.856Z,101143.15
2023-01-12T07:49:17.290Z,101145.84
2023-01-12T07:52:45.002Z,101149.20
2023-01-12T07:55:54.448Z,101146.26
2023-01-12T07:59:22.319Z,101146.81
2023-01-12T08:02:50.949Z,101152.38
2023-01-12T08:06:18.585Z,101154.70
2023-01-12T08:09:46.229Z,101156.41
2023-01-12T08:13:14.232Z,101154.48
2023-01-12T08:16:41.979Z,101151.08
2023-01-12T08:20:09.556Z,101150.22
2023-01-12T08:23:37.365Z,101147.89
2023-01-12T08:27:05.138Z,101146.47
2023-01-12T08:30:13.687Z,101157.77
2023-01-12T08:33:41.272Z,101157.70
2023-01-12T08:37:08.897Z,101152.26
2023-01-12T08:40:16.661Z,101153.80
2023-01-12T08:43:25.492Z,101141.16
2023-01-12T08:46:53.392Z,101139.20
2023-01-12T08:50:21.297Z,101141.08
2023-01-12T08:53:48.848Z,101135.13
2023-01-12T08:56:58.523Z,101132.85
2023-01-12T09:00:26.182Z,101130.10
2023-01-12T09:03:34.222Z,101125.81
2023-01-12T09:07:01.952Z,101128.09
2023-01-12T09:10:30.139Z,101122.25
2023-01-12T09:13:57.763Z,101115.92
2023-01-12T09:17:06.599Z,101114.34
2023-01-12T09:20:34.259Z,101111.90
2023-01-12T09:24:02.140Z,101107.05
2023-01-12T09:27:29.999Z,101095.20
2023-01-12T09:30:38.739Z,101085.70
2023-01-12T09:34:06.309Z,101086.95
2023-01-12T09:37:14.997Z,101091.54
2023-01-12T09:40:42.802Z,101097.40
2023-01-12T09:43:51.508Z,101107.05
2023-01-12T09:47:19.154Z,101098.20
2023-01-12T09:50:28.015Z,101102.27
2023-01-12T09:53:55.617Z,101104.14
2023-01-12T09:57:29.201Z,101103.21
2023-01-12T10:00:51.177Z,101099.71
2023-01-12T10:04:18.678Z,101095.52
2023-01-12T10:07:06.965Z,101091.42
2023-01-12T10:10:15.724Z,101087.29
2023-01-12T10:13:24.560Z,101084.47
2023-01-12T10:16:33.199Z,101090.00
2023-01-12T10:19:42.015Z,101086.08
2023-01-12T10:23:11.355Z,101083.59
2023-01-12T10:26:39.111Z,101080.67
2023-01-12T10:29:48.158Z,101080.41
2023-01-12T10:33:15.839Z,101071.81
2023-01-12T10:36:24.295Z,101066.01
2023-01-12T10:39:53.639Z,101062.58
2023-01-12T10:43:21.400Z,101056.68
2023-01-12T10:46:44.540Z,101051.12
2023-01-12T10:50:12.578Z,101048.09
2023-01-12T10:53:40.312Z,101046.04
2023-01-12T10:56:48.617Z,101037.04
2023-01-12T10:59:57.524Z,101036.89
2023-01-12T11:03:25.344Z,101031.49
2023-01-12T11:06:35.213Z,101028.04
2023-01-12T11:09:43.785Z,101023.70
2023-01-12T11:12:52.185Z,101029.63
2023-01-12T11:16:19.818Z,101033.11
2023-01-12T11:19:48.392Z,101034.52
2023-01-12T11:22:58.204Z,101030.08
2023-01-12T11:26:25.861Z,101029.17
2023-01-12T11:29:35.662Z,101028.62
2023-01-12T11:32:44.456Z,101028.34
2023-01-12T11:35:52.472Z,101033.63
2023-01-12T11:39:20.232Z,101044.27
2023-01-12T11:42:48.092Z,101047.52
2023-01-12T11:46:03.583Z,101049.40
2023-01-12T11:49:11.974Z,101047.38
2023-01-12T11:52:20.362Z,101044.62
2023-01-12T11:55:48.216Z,101045.20
2023-01-12T11:59:15.938Z,101042.09
2023-01-12T12:02:44.531Z,101043.40
2023-01-12T12:05:52.325Z,101043.64
2023-01-12T12:09:19.883Z,101038.68
2023-01-12T12:12:10.074Z,101033.75
2023-01-12T12:15:37.889Z,101036.48
2023-01-12T12:19:05.521Z,101038.60
2023-01-12T12:22:15.216Z,101036.70
2023-01-12T12:25:42.912Z,101035.82
2023-01-12T12:29:10.677Z,101026.92
2023-01-12T12:32:18.811Z,101029.44
2023-01-12T12:35:46.271Z,101025.84
2023-01-12T12:39:14.207Z,101030.09
2023-01-12T12:42:22.300Z,101033.43
2023-01-12T12:45:49.888Z,101023.88
2023-01-12T12:49:17.451Z,101021.91
2023-01-12T12:52:26.035Z,101019.17
2023-01-12T12:55:14.525Z,101022.64
2023-01-12T12:58:23.601Z,101021.97
2023-01-12T13:01:31.812Z,101021.36
2023-01-12T13:04:39.964Z,101021.02
2023-01-12T13:08:07.639Z,101021.30
2023-01-12T13:11:35.585Z,101027.58
2023-01-12T13:15:03.844Z,101021.89
2023-01-12T13:18:31.541Z,101024.19
2023-01-12T13:21:59.241Z,101023.30
2023-01-12T13:25:27.358Z,101032.35
2023-01-12T13:28:54.968Z,101028.70
2023-01-12T13:32:03.670Z,101023.43
2023-01-12T13:35:31.262Z,101026.05
2023-01-12T13:38:39.991Z,101028.20
2023-01-12T13:42:09.064Z,101032.38
2023-01-12T13:45:36.885Z,101034.14
2023-01-12T13:48:47.232Z,101031.52
2023-01-12T13:52:15.113Z,101029.04
2023-01-12T13:55:43.356Z,101025.74
2023-01-12T13:59:11.335Z,101030.55
2023-01-12T14:02:00.885Z,101032.02
2023-01-12T14:04:29.845Z,101035.65
2023-01-12T14:07:58.039Z,101030.98
2023-01-12T14:11:25.725Z,101028.73
2023-01-12T14:14:53.818Z,101030.11
2023-01-12T14:18:21.868Z,101032.89
2023-01-12T14:21:30.368Z,101030.68
2023-01-12T14:24:19.691Z,101037.70
2023-01-12T14:27:28.536Z,101036.45
2023-01-12T14:30:55.955Z,101028.92
2023-01-12T14:34:23.888Z,101027.45
2023-01-12T14:37:33.828Z,101027.64
2023-01-12T14:41:01.853Z,101026.10
2023-01-12T14:44:10.775Z,101026.09
2023-01-12T14:47:40.079Z,101024.44
2023-01-12T14:51:07.603Z,101025.43
2023-01-12T14:54:35.287Z,101026.17
2023-01-12T14:57:44.234Z,101025.41
2023-01-12T15:01:12.377Z,101021.48
2023-01-12T15:04:23.367Z,101028.11
2023-01-12T15:07:49.249Z,101031.45
2023-01-12T15:10:57.297Z,101033.76
2023-01-12T15:14:25.016Z,101036.30
2023-01-12T15:17:35.115Z,101040.98
2023-01-12T15:21:03.261Z,101042.02
2023-01-12T15:24:31.042Z,101049.02
2023-01-12T15:27:59.048Z,101059.75
2023-01-12T15:31:27.155Z,101060.19
2023-01-12T15:34:54.645Z,101062.16
2023-01-12T15:38:03.591Z,101058.95
2023-01-12T15:41:31.354Z,101064.99
2023-01-12T15:44:20.532Z,101063.59
2023-01-12T15:47:48.469Z,101056.11
2023-01-12T15:51:16.145Z,101054.91
2023-01-12T15:54:43.973Z,101060.02
2023-01-12T15:57:51.655Z,101060.55
2023-01-12T16:01:19.454Z,101058.13
2023-01-12T16:04:47.075Z,101057.63
2023-01-12T16:08:14.735Z,101057.33
2023-01-12T16:11:43.597Z,101060.96
2023-01-12T16:15:11.147Z,101060.33
2023-01-12T16:18:38.612Z,101056.60
2023-01-12T16:21:47.208Z,101053.16
2023-01-12T16:24:55.880Z,101058.75
2023-01-12T16:28:04.126Z,101058.75
2023-01-12T16:31:31.982Z,101059.90
2023-01-12T16:34:59.607Z,101061.48
2023-01-12T16:38:08.284Z,101057.92
2023-01-12T16:41:36.154Z,101056.52
2023-01-12T16:44:44.552Z,101052.50
2023-01-12T16:47:53.091Z,101050.56
2023-01-12T16:51:01.791Z,101050.64
2023-01-12T16:54:29.541Z,101055.82
2023-01-12T16:57:37.996Z,101062.46
2023-01-12T17:01:05.537Z,101070.23
2023-01-12T17:04:33.117Z,101074.65
2023-01-12T17:07:48.858Z,101076.24
2023-01-12T17:11:16.826Z,101074.96
2023-01-12T17:13:45.441Z,101075.76
2023-01-12T17:16:53.725Z,101074.60
2023-01-12T17:20:21.686Z,101071.04
2023-01-12T17:23:49.469Z,101066.87
2023-01-12T17:27:17.400Z,101069.14
2023-01-12T17:30:33.559Z,101067.30
2023-01-12T17:33:42.720Z,101072.31
2023-01-12T17:37:10.457Z,101072.27
2023-01-12T17:40:38.217Z,101068.30
2023-01-12T17:44:06.020Z,101071.98
2023-01-12T17:47:00.128Z,101074.27
2023-01-12T17:50:27.973Z,101079.98
2023-01-12T17:53:55.756Z,101079.29
2023-01-12T17:57:24.007Z,101084.11
2023-01-12T18:00:52.426Z,101083.73
2023-01-12T18:04:20.468Z,101084.67
2023-01-12T18:07:48.286Z,101076.73
2023-01-12T18:11:16.700Z,101075.66
2023-01-12T18:14:28.769Z,101083.00
2023-01-12T18:17:36.736Z,101082.82
2023-01-12T18:21:04.750Z,101083.48
2023-01-12T18:24:28.625Z,101079.73
2023-01-12T18:27:56.450Z,101079.91
2023-01-12T18:31:24.405Z,101073.94
2023-01-12T18:34:52.801Z,101075.78
2023-01-12T18:38:16.811Z,101073.62
2023-01-12T18:41:44.590Z,101074.16
2023-01-12T18:44:53.391Z,101070.60
2023-01-12T18:48:02.446Z,101066.95
2023-01-12T18:51:30.358Z,101061.91
2023-01-12T18:54:46.458Z,101064.56
2023-01-12T18:58:14.339Z,101067.88
2023-01-12T19:01:26.092Z,101065.72
2023-01-12T19:04:53.832Z,101062.92
2023-01-12T19:08:21.519Z,101064.61
2023-01-12T19:11:49.305Z,101067.11
2023-01-12T19:14:58.517Z,101067.93
2023-01-12T19:18:26.423Z,101067.64
2023-01-12T19:21:54.251Z,101067.95
2023-01-12T19:25:22.016Z,101070.90
2023-01-12T19:28:49.854Z,101068.90
2023-01-12T19:32:13.670Z,101065.00
2023-01-12T19:35:41.843Z,101059.46
2023-01-12T19:39:09.471Z,101064.66
2023-01-12T19:42:37.518Z,101065.42
2023-01-12T19:45:46.220Z,101064.70
2023-01-12T19:49:13.936Z,101062.61
2023-01-12T19:52:41.753Z,101062.79
2023-01-12T19:56:09.937Z,101054.16
2023-01-12T19:59:37.788Z,101049.89
2023-01-12T20:03:05.551Z,101052.23
2023-01-12T20:06:33.373Z,101056.34
2023-01-12T20:10:01.117Z,101055.34
2023-01-12T20:13:29.258Z,101055.77
2023-01-12T20:16:56.969Z,101057.70
2023-01-12T20:20:24.746Z,101056.02
2023-01-12T20:23:52.591Z,101067.38
2023-01-12T20:27:20.466Z,101063.95
2023-01-12T20:30:48.272Z,101075.55
2023-01-12T20:34:16.377Z,101079.91
2023-01-12T20:37:25.209Z,101087.90
2023-01-12T20:40:52.970Z,101089.10
2023-01-12T20:44:20.892Z,101093.31
2023-01-12T20:47:29.641Z,101094.27
2023-01-12T20:50:57.398Z,101094.05
2023-01-12T20:54:25.357Z,101096.58
2023-01-12T20:57:16.402Z,101099.09
2023-01-12T21:00:44.048Z,101099.80
2023-01-12T21:04:11.606Z,101099.92
2023-01-12T21:07:21.904Z,101100.91
2023-01-12T21:09:59.401Z,101098.66
2023-01-12T21:13:08.031Z,101096.40
2023-01-12T21:16:35.939Z,101093.89
2023-01-12T21:20:03.812Z,101089.84
2023-01-12T21:23:13.486Z,101090.43
2023-01-12T21:26:41.179Z,101095.64
2023-01-12T21:29:30.981Z,101098.73
2023-01-12T21:33:00.229Z,101103.31
2023-01-12T21:36:28.214Z,101097.02
2023-01-12T21:39:16.898Z,101098.39
2023-01-12T21:42:26.200Z,101099.50
2023-01-12T21:45:54.778Z,101103.52
2023-01-12T21:49:22.429Z,101104.38
2023-01-12T21:52:11.102Z,101100.33
2023-01-12T21:55:36.373Z,101097.98
2023-01-12T21:58:26.177Z,101099.58
2023-01-12T22:01:54.260Z,101093.95
2023-01-12T22:05:21.831Z,101091.02
2023-01-12T22:08:49.423Z,101085.40
2023-01-12T22:11:59.289Z,101085.95
2023-01-12T22:15:27.003Z,101083.30
2023-01-12T22:18:54.752Z,101084.11
2023-01-12T22:22:22.523Z,101080.88
2023-01-12T22:25:30.994Z,101076.59
2023-01-12T22:28:48.306Z,101077.72
2023-01-12T22:32:15.962Z,101075.15
2023-01-12T22:35:44.181Z,101081.30
2023-01-12T22:39:13.405Z,101084.02
2023-01-12T22:42:41.287Z,101084.98
2023-01-12T22:45:50.355Z,101079.48
2023-01-12T22:49:27.649Z,101074.48
2023-01-12T22:52:37.721Z,101072.77
2023-01-12T22:56:05.657Z,101068.71
2023-01-12T22:59:33.294Z,101068.15
2023-01-12T23:03:02.386Z,101066.48
2023-01-12T23:06:29.569Z,101061.34
2023-01-12T23:09:57.449Z,101051.42
2023-01-12T23:13:25.506Z,101052.97
2023-01-12T23:16:33.453Z,101052.56
2023-01-12T23:20:01.114Z,101056.42
2023-01-12T23:23:29.267Z,101058.75
2023-01-12T23:26:58.971Z,101054.56
2023-01-12T23:30:26.590Z,101052.88
2023-01-12T23:33:54.332Z,101055.70
2023-01-12T23:37:22.115Z,101057.46
2023-01-12T23:40:49.876Z,101056.32
2023-01-12T23:44:17.891Z,101048.21
2023-01-12T23:47:45.755Z,101047.55
2023-01-12T23:50:34.421Z,101037.73
2023-01-12T23:54:02.302Z,101030.75
2023-01-12T23:57:30.302Z,101032.92
